Hovedside
METAR-TAF:

METAR-TAF

Lufthavner :

Joensuu lufthavn

Joensuu, Finland

breddegrad: 62-40N, lengdegrad: 029-38E, høyde over havet: 119 m

Gjeldene værobservasjon

Denne rapporten ble laget for 17 minutter siden, klokken 06:20 UTC
Vind 7 kt fra Vest
Temperatur 1°C
Luftfuktighet 93%
Trykk 1021 hPa
Sikt 10 km eller mer
Brutte skyer i en høyde av 1400 ft

METAR: EFJO 150620Z 26007KT 9999 BKN014 01/00 Q1021

Tid: 08:37 (06:37 UTC)

Varsel

Denne rapporten ble laget for 1 time og 3 minutter siden, klokken 05:34 UTC
Varsel gyldig fra 15. klokken 06 UTC til 15. klokken 15 UTC
Vind 10 kt fra Vest
Sikt 10 km eller mer
Få skyer i en høyde av 1200 ft
Overskyet i en høyde av 1800 ft
Midlertidig
fra 15. klokken 06 UTC til 15. klokken 15 UTC
Brutte skyer i en høyde av 1200 ft

TAF: EFJO 150534Z 1506/1515 27010KT 9999 FEW012 OVC018 TEMPO 1506/1515 BKN012

Værobservasjoner og værvarsel for over 4000 flyplasser (METAR- og TAF-rapporter).

Tilgjengelige stasjoner er representert av de røde og gule prikkene på kartet.

Hold musepekeren over prikken for å se navnet på stasjonen.

Klikk så for å se værobservasjoner og -varsler.

For å forandre kartet kan du klikke på den grønne knappen med svart kryss for å zoome inn, på den grønne knappen med strek for å zoome ut, eller på de grønne pilene for å se tilstøtende kart.


METAR-TAF: